Time,TemperatureF,DewpointF,PressureIn,WindDirection,WindDirectionDegrees,WindSpeedMPH,WindSpeedGustMPH,Humidity,HourlyPrecipIn,Conditions,Clouds,dailyrainin,SoftwareType,DateUTC
2013-07-18 00:00:00,57.5,54.0,30.16,NNW,328,2.0,7.0,89,0.00,,,0.00,weatherlink.com 1.10,2013-07-18 07:00:00,
2013-07-18 00:15:00,57.3,54.0,30.16,WNW,284,1.0,12.0,89,0.00,,,0.00,weatherlink.com 1.10,2013-07-18 07:15:00,
2013-07-18 00:30:00,57.2,54.0,30.16,NW,308,2.0,9.0,89,0.00,,,0.00,weatherlink.com 1.10,2013-07-18 07:30:00,
2013-07-18 00:45:00,56.9,54.0,30.16,West,278,2.0,10.0,90,0.00,,,0.00,weatherlink.com 1.10,2013-07-18 07:45:00,
2013-07-18 01:00:00,56.7,54.0,30.16,WNW,292,1.0,7.0,90,0.00,,,0.00,weatherlink.com 1.10,2013-07-18 08:00:00,
2013-07-18 01:15:00,56.6,54.0,30.16,West,279,0.0,7.0,89,0.00,,,0.00,weatherlink.com 1.10,2013-07-18 08:15:00,
2013-07-18 01:30:00,56.7,53.0,30.15,NW,320,4.0,8.0,88,0.00,,,0.00,weatherlink.com 1.10,2013-07-18 08:30:00,
2013-07-18 01:45:00,56.7,53.0,30.16,North,11,0.0,3.0,88,0.00,,,0.00,weatherlink.com 1.10,2013-07-18 08:45:00,
2013-07-18 02:00:00,56.6,53.0,30.16,NNW,338,1.0,6.0,88,0.00,,,0.00,weatherlink.com 1.10,2013-07-18 09:00:00,
2013-07-18 02:15:00,56.5,53.0,30.16,NNE,33,0.0,6.0,88,0.00,,,0.00,weatherlink.com 1.10,2013-07-18 09:15:00,
2013-07-18 02:30:00,56.3,53.0,30.16,NNE,20,1.0,4.0,88,0.00,,,0.00,weatherlink.com 1.10,2013-07-18 09:30:00,
2013-07-18 02:45:00,56.0,53.0,30.16,NNE,23,0.0,3.0,88,0.00,,,0.00,weatherlink.com 1.10,2013-07-18 09:45:00,
2013-07-18 03:00:00,55.8,52.0,30.16,NE,49,0.0,3.0,88,0.00,,,0.00,weatherlink.com 1.10,2013-07-18 10:00:00,
2013-07-18 03:15:00,55.4,52.0,30.16,NNW,333,2.0,3.0,89,0.00,,,0.00,weatherlink.com 1.10,2013-07-18 10:15:00,
2013-07-18 03:30:00,55.4,52.0,30.16,North,11,0.0,4.0,89,0.00,,,0.00,weatherlink.com 1.10,2013-07-18 10:30:00,
2013-07-18 03:45:00,55.2,52.0,30.15,North,9,2.0,7.0,90,0.00,,,0.00,weatherlink.com 1.10,2013-07-18 10:45:00,
2013-07-18 04:00:00,55.1,52.0,30.16,NE,35,0.0,3.0,90,0.00,,,0.00,weatherlink.com 1.10,2013-07-18 11:00:00,
2013-07-18 04:15:00,54.7,52.0,30.16,NNE,29,0.0,2.0,90,0.00,,,0.00,weatherlink.com 1.10,2013-07-18 11:15:00,
2013-07-18 04:30:00,54.3,52.0,30.16,NE,35,1.0,3.0,91,0.00,,,0.00,weatherlink.com 1.10,2013-07-18 11:30:00,
2013-07-18 04:45:00,54.2,52.0,30.16,NE,39,1.0,3.0,91,0.00,,,0.00,weatherlink.com 1.10,2013-07-18 11:45:00,
2013-07-18 05:00:00,53.9,51.0,30.17,NE,40,2.0,3.0,91,0.00,,,0.00,weatherlink.com 1.10,2013-07-18 12:00:00,
2013-07-18 05:16:00,53.8,52.0,30.16,NNW,330,1.0,3.0,92,0.00,,,0.00,weatherlink.com 1.10,2013-07-18 12:16:00,
2013-07-18 05:31:00,53.5,51.0,30.17,NW,308,1.0,2.0,92,0.00,,,0.00,weatherlink.com 1.10,2013-07-18 12:31:00,
2013-07-18 05:46:00,53.4,51.0,30.17,NE,54,0.0,3.0,92,0.00,,,0.00,weatherlink.com 1.10,2013-07-18 12:46:00,
2013-07-18 06:01:00,53.5,51.0,30.18,NNE,27,0.0,2.0,92,0.00,,,0.00,weatherlink.com 1.10,2013-07-18 13:01:00,
2013-07-18 06:16:00,53.5,51.0,30.18,NNE,33,0.0,1.0,92,0.00,,,0.00,weatherlink.com 1.10,2013-07-18 13:16:00,
2013-07-18 06:31:00,53.6,51.0,30.18,NNE,25,0.0,2.0,92,0.00,,,0.00,weatherlink.com 1.10,2013-07-18 13:31:00,
2013-07-18 06:46:00,53.9,51.0,30.19,NE,44,3.0,6.0,91,0.00,,,0.00,weatherlink.com 1.10,2013-07-18 13:46:00,
2013-07-18 07:01:00,54.3,52.0,30.19,NNE,30,0.0,2.0,91,0.00,,,0.00,weatherlink.com 1.10,2013-07-18 14:01:00,
2013-07-18 07:16:00,54.8,52.0,30.19,NNE,15,3.0,8.0,90,0.00,,,0.00,weatherlink.com 1.10,2013-07-18 14:16:00,
2013-07-18 07:31:00,55.3,52.0,30.19,NW,320,3.0,6.0,89,0.00,,,0.00,weatherlink.com 1.10,2013-07-18 14:31:00,
2013-07-18 07:46:00,56.0,52.0,30.19,NW,319,1.0,5.0,87,0.00,,,0.00,weatherlink.com 1.10,2013-07-18 14:46:00,
2013-07-18 08:00:00,56.7,53.0,30.19,NE,41,3.0,6.0,86,0.00,,,0.00,weatherlink.com 1.10,2013-07-18 15:00:00,
2013-07-18 08:16:00,57.9,53.0,30.20,NNE,22,5.0,8.0,84,0.00,,,0.00,weatherlink.com 1.10,2013-07-18 15:16:00,
2013-07-18 08:31:00,59.5,54.0,30.20,NNE,20,1.0,7.0,81,0.00,,,0.00,weatherlink.com 1.10,2013-07-18 15:31:00,
2013-07-18 08:46:00,59.6,54.0,30.20,NW,318,3.0,5.0,81,0.00,,,0.00,weatherlink.com 1.10,2013-07-18 15:46:00,
2013-07-18 09:01:00,58.9,53.0,30.20,NNE,26,3.0,8.0,82,0.00,,,0.00,weatherlink.com 1.10,2013-07-18 16:01:00,
2013-07-18 09:16:00,58.9,53.0,30.20,WNW,303,2.0,10.0,82,0.00,,,0.00,weatherlink.com 1.10,2013-07-18 16:16:00,
2013-07-18 09:31:00,59.0,53.0,30.19,NW,315,4.0,7.0,81,0.00,,,0.00,weatherlink.com 1.10,2013-07-18 16:31:00,
2013-07-18 09:46:00,59.6,54.0,30.19,West,274,2.0,8.0,82,0.00,,,0.00,weatherlink.com 1.10,2013-07-18 16:46:00,
2013-07-18 10:01:00,60.9,54.0,30.19,WSW,246,0.0,7.0,78,0.00,,,0.00,weatherlink.com 1.10,2013-07-18 17:01:00,
2013-07-18 10:16:00,61.8,54.0,30.19,West,281,5.0,10.0,76,0.00,,,0.00,weatherlink.com 1.10,2013-07-18 17:16:00,
2013-07-18 10:31:00,61.9,54.0,30.18,NNW,328,3.0,11.0,76,0.00,,,0.00,weatherlink.com 1.10,2013-07-18 17:31:00,
2013-07-18 10:46:00,62.4,54.0,30.18,NNW,338,3.0,12.0,74,0.00,,,0.00,weatherlink.com 1.10,2013-07-18 17:46:00,
2013-07-18 11:01:00,63.0,55.0,30.18,West,277,3.0,11.0,75,0.00,,,0.00,weatherlink.com 1.10,2013-07-18 18:01:00,
2013-07-18 11:16:00,62.7,55.0,30.18,WNW,300,6.0,14.0,75,0.00,,,0.00,weatherlink.com 1.10,2013-07-18 18:16:00,
2013-07-18 11:31:00,62.8,55.0,30.17,SSW,211,6.0,14.0,76,0.00,,,0.00,weatherlink.com 1.10,2013-07-18 18:31:00,
2013-07-18 11:46:00,63.5,54.0,30.17,WNW,299,5.0,16.0,72,0.00,,,0.00,weatherlink.com 1.10,2013-07-18 18:46:00,
2013-07-18 12:01:00,64.9,57.0,30.17,NW,319,5.0,13.0,75,0.00,,,0.00,weatherlink.com 1.10,2013-07-18 19:01:00,
2013-07-18 12:16:00,64.7,56.0,30.17,NW,305,3.0,13.0,74,0.00,,,0.00,weatherlink.com 1.10,2013-07-18 19:16:00,
2013-07-18 12:31:00,65.5,57.0,30.17,WSW,257,6.0,15.0,73,0.00,,,0.00,weatherlink.com 1.10,2013-07-18 19:31:00,
2013-07-18 12:46:00,65.4,57.0,30.16,WSW,245,5.0,16.0,74,0.00,,,0.00,weatherlink.com 1.10,2013-07-18 19:46:00,
2013-07-18 13:01:00,66.8,57.0,30.16,West,271,11.0,14.0,71,0.00,,,0.00,weatherlink.com 1.10,2013-07-18 20:01:00,
2013-07-18 13:16:00,67.3,58.0,30.15,West,262,10.0,11.0,72,0.00,,,0.00,weatherlink.com 1.10,2013-07-18 20:16:00,
2013-07-18 13:31:00,68.2,59.0,30.15,West,280,3.0,14.0,72,0.00,,,0.00,weatherlink.com 1.10,2013-07-18 20:31:00,
2013-07-18 13:46:00,68.3,59.0,30.14,WNW,300,3.0,14.0,71,0.00,,,0.00,weatherlink.com 1.10,2013-07-18 20:46:00,
2013-07-18 14:02:00,69.4,59.0,30.14,WNW,286,15.0,15.0,70,0.00,,,0.00,weatherlink.com 1.10,2013-07-18 21:02:00,
2013-07-18 14:17:00,70.2,60.0,30.14,WNW,285,3.0,13.0,69,0.00,,,0.00,weatherlink.com 1.10,2013-07-18 21:17:00,
2013-07-18 14:32:00,70.8,60.0,30.14,NW,318,4.0,16.0,69,0.00,,,0.00,weatherlink.com 1.10,2013-07-18 21:32:00,
2013-07-18 14:47:00,71.2,60.0,30.13,WNW,291,7.0,17.0,67,0.00,,,0.00,weatherlink.com 1.10,2013-07-18 21:47:00,
2013-07-18 15:02:00,72.0,60.0,30.12,WNW,288,7.0,14.0,66,0.00,,,0.00,weatherlink.com 1.10,2013-07-18 22:02:00,
2013-07-18 15:17:00,73.2,60.0,30.12,WNW,290,6.0,11.0,63,0.00,,,0.00,weatherlink.com 1.10,2013-07-18 22:17:00,
2013-07-18 15:32:00,73.4,59.0,30.11,WNW,290,4.0,18.0,61,0.00,,,0.00,weatherlink.com 1.10,2013-07-18 22:32:00,
2013-07-18 15:47:00,73.8,59.0,30.11,WNW,294,7.0,21.0,61,0.00,,,0.00,weatherlink.com 1.10,2013-07-18 22:47:00,
2013-07-18 16:02:00,74.4,60.0,30.10,West,270,9.0,13.0,62,0.00,,,0.00,weatherlink.com 1.10,2013-07-18 23:02:00,
2013-07-18 16:17:00,74.6,61.0,30.09,SW,235,4.0,12.0,62,0.00,,,0.00,weatherlink.com 1.10,2013-07-18 23:17:00,
2013-07-18 16:33:00,75.2,60.0,30.09,West,269,4.0,18.0,60,0.00,,,0.00,weatherlink.com 1.10,2013-07-18 23:33:00,
2013-07-18 16:47:00,75.7,60.0,30.09,West,274,10.0,12.0,59,0.00,,,0.00,weatherlink.com 1.10,2013-07-18 23:47:00,
2013-07-18 17:02:00,75.8,61.0,30.08,SW,231,5.0,13.0,60,0.00,,,0.00,weatherlink.com 1.10,2013-07-19 00:02:00,
2013-07-18 17:17:00,76.8,61.0,30.08,North,1,3.0,16.0,59,0.00,,,0.00,weatherlink.com 1.10,2013-07-19 00:17:00,
2013-07-18 17:32:00,77.2,60.0,30.07,WNW,285,1.0,10.0,56,0.00,,,0.00,weatherlink.com 1.10,2013-07-19 00:32:00,
2013-07-18 17:47:00,77.2,61.0,30.07,WNW,302,2.0,11.0,57,0.00,,,0.00,weatherlink.com 1.10,2013-07-19 00:47:00,
2013-07-18 18:02:00,77.6,61.0,30.07,ESE,113,1.0,12.0,57,0.00,,,0.00,weatherlink.com 1.10,2013-07-19 01:02:00,
2013-07-18 18:17:00,76.8,61.0,30.06,NW,323,2.0,13.0,58,0.00,,,0.00,weatherlink.com 1.10,2013-07-19 01:17:00,
2013-07-18 18:32:00,77.0,60.0,30.06,NNW,328,6.0,11.0,57,0.00,,,0.00,weatherlink.com 1.10,2013-07-19 01:32:00,
2013-07-18 18:48:00,76.2,62.0,30.06,WNW,283,2.0,11.0,61,0.00,,,0.00,weatherlink.com 1.10,2013-07-19 01:48:00,
2013-07-18 19:02:00,75.1,62.0,30.06,WNW,284,3.0,13.0,63,0.00,,,0.00,weatherlink.com 1.10,2013-07-19 02:02:00,
2013-07-18 19:17:00,74.1,61.0,30.06,WSW,243,5.0,15.0,64,0.00,,,0.00,weatherlink.com 1.10,2013-07-19 02:17:00,
2013-07-18 19:32:00,73.3,61.0,30.06,West,277,5.0,13.0,66,0.00,,,0.00,weatherlink.com 1.10,2013-07-19 02:32:00,
2013-07-18 19:47:00,72.8,61.0,30.06,NE,34,2.0,13.0,67,0.00,,,0.00,weatherlink.com 1.10,2013-07-19 02:47:00,
2013-07-18 20:02:00,72.1,61.0,30.06,NW,318,5.0,11.0,67,0.00,,,0.00,weatherlink.com 1.10,2013-07-19 03:02:00,
2013-07-18 20:17:00,71.0,60.0,30.06,NNW,338,6.0,10.0,69,0.00,,,0.00,weatherlink.com 1.10,2013-07-19 03:17:00,
2013-07-18 20:32:00,69.5,60.0,30.06,North,352,6.0,11.0,71,0.00,,,0.00,weatherlink.com 1.10,2013-07-19 03:32:00,
2013-07-18 20:47:00,67.9,59.0,30.06,NW,316,1.0,10.0,74,0.00,,,0.00,weatherlink.com 1.10,2013-07-19 03:47:00,
2013-07-18 21:02:00,66.6,58.0,30.06,NNW,335,3.0,9.0,75,0.00,,,0.00,weatherlink.com 1.10,2013-07-19 04:02:00,
2013-07-18 21:17:00,65.6,58.0,30.07,NNW,347,1.0,12.0,77,0.00,,,0.00,weatherlink.com 1.10,2013-07-19 04:17:00,
2013-07-18 21:32:00,64.9,58.0,30.07,ENE,75,0.0,8.0,78,0.00,,,0.00,weatherlink.com 1.10,2013-07-19 04:32:00,
2013-07-18 21:47:00,64.2,57.0,30.08,NW,307,3.0,7.0,78,0.00,,,0.00,weatherlink.com 1.10,2013-07-19 04:47:00,
2013-07-18 22:02:00,63.4,57.0,30.09,North,4,5.0,11.0,79,0.00,,,0.00,weatherlink.com 1.10,2013-07-19 05:02:00,
2013-07-18 22:17:00,62.8,57.0,30.09,NW,326,2.0,15.0,80,0.00,,,0.00,weatherlink.com 1.10,2013-07-19 05:17:00,
2013-07-18 22:33:00,62.3,56.0,30.09,NNE,17,9.0,14.0,80,0.00,,,0.00,weatherlink.com 1.10,2013-07-19 05:33:00,
2013-07-18 22:48:00,61.7,56.0,30.09,NNE,29,2.0,15.0,81,0.00,,,0.00,weatherlink.com 1.10,2013-07-19 05:48:00,
2013-07-18 23:03:00,61.1,56.0,30.09,WSW,239,3.0,9.0,82,0.00,,,0.00,weatherlink.com 1.10,2013-07-19 06:03:00,
2013-07-18 23:18:00,60.6,55.0,30.10,NNE,25,4.0,10.0,83,0.00,,,0.00,weatherlink.com 1.10,2013-07-19 06:18:00,
2013-07-18 23:33:00,60.3,55.0,30.10,NW,309,4.0,10.0,83,0.00,,,0.00,weatherlink.com 1.10,2013-07-19 06:33:00,
2013-07-18 23:48:00,59.7,55.0,30.11,NW,309,4.0,12.0,84,0.00,,,0.00,weatherlink.com 1.10,2013-07-19 06:48:00,